LIMG 180750Z 26004KT CAVOK 01/M00 Q1030 LSMA 180750Z 19002KT 5000 BR BKN010 BKN013 M01/M02 Q1035 RMK GRN EDAC 180750Z 23006KT 4700 -RA SCT006 OVC010 01/00 Q1036 ETHA 180802Z 04005KT 9999 BKN007 01/M00 Q1036 BLACKGRN GRN BECMG WHT LFLP 180800Z AUTO VRB01KT 6000 OVC022 M00/M01 Q1032 TEMPO 4000 BR LEAS 180800Z 23004KT CAVOK 02/00 Q1032 NOSIG EDMA 180750Z VRB01KT 7000 FEW007 OVC010 02/02 Q1036 LIPA 180755Z 03004KT CAVOK 01/M03 Q1031 RMK SKC VIS MIN 9999 WIND THR05 /////KT WIND THR23 /////KT A3045 BLU EHMA 180755Z AUTO 25006KT 9999 SCT000 05/03 Q1037 LFSB 180800Z 20003KT 0200 R15/0400N R33/0350N FZFG VV/// M00/M01 Q1036 BECMG 0400 FG EGAC 180750Z AUTO 17006KT 9999 OVC014/// 05/03 Q1032 EGAA 180750Z AUTO 18010KT 160V220 9999 BKN011 05/04 Q1032 LIME 180750Z AUTO 03003KT 340V100 9999 NCD 02/M02 Q1031 EDDB 180750Z 27007KT 9999 BKN020 M01/M02 Q1034 NOSIG LSZB 180750Z VRB01KT CAVOK M04/M05 Q1033 NOSIG EBLG 180750Z VRB02KT 0300 R22L/0750D R22R/0550N R04R/1400D FG BKN001 04/04 Q1038 BECMG 0800 FG LIPE 180750Z 18003KT 140V200 0300 R12/0900U R30/0400U FG VV001 01/01 Q1031 LIPB 180750Z VRB01KT CAVOK 03/M05 Q1032 RMK MON LIB EDVE 180750Z 26005KT 9999 BKN025 BKN029 04/03 Q1036 EDDW 180750Z 29007KT 9999 BKN009 06/05 Q1037 NOSIG LIPO 180750Z AUTO VRB02KT 6000 NCD 00/M01 Q1031 ETHB 180733Z 30005KT 3500 -DZ BR BKN003 BKN023 06/05 Q1037 YLO GRN TEMPO YLO ETSB 180720Z 36003KT 3500 BR FEW004 BKN006 BKN014 03/03 Q1036 YLO EHHW 180755Z AUTO 24006KT 210V280 9999 NCD 07/06 Q1036 LSZC 180750Z 23004KT 8000 BKN013 M01/M03 Q1035 LFMD 180800Z AUTO 02007KT 360V060 9999 OVC026 05/01 Q1030 NOSIG LIMU 180755Z 03008KT 9999 FEW020 09/07 Q1029 RMK FEW QUK 2 QUL 1 SE VIS MAR 30 KM VIS MIN 9999 EIME 180800Z 18002KT 9999 SCT014 BKN200 06/04 Q1033 ETHC 180748Z 25004KT 1800 R26/2400D -DZ BR SCT001 BKN010 05/05 Q1036 YLO BLU TEMPO YLO LIPC 180806Z 30003KT 0400 R11/1100D FZFG VV001 M01/M03 Q1031 RMK VIS MIN 0400 WIND THR11 29004KT WIND THR29 30004KT RED LFLB 180800Z AUTO 16006KT 6000 OVC031 M00/M02 Q1034 TEMPO BKN009 LIVC 180755Z AUTO 03008KT //// M01/M11 Q1028 LFGA 180800Z AUTO 02005KT 8000 NSC 03/02 Q1037 EIKN 180800Z 16008KT 120V190 9999 -RA FEW002 BKN014 BKN048 05/05 Q1029 NOSIG EICK 180800Z 17011KT 9999 BKN007 BKN018 09/07 Q1032 NOSIG EGDR 180750Z 13004KT 9999 FEW025 BKN140 07/04 Q1035 TEMPO SCT018 RMK BLU TEMPO WHT EHDL 180755Z AUTO 25004KT 200V300 0900 FG VV001 04/04 Q1038 AMB LFSD 180800Z AUTO 02006KT 8000 OVC007 04/02 Q1034 LFGJ 180800Z AUTO 03013KT 9000 FEW014 03/01 Q1034 TEMPO BKN013 EDLW 180750Z VRB01KT 7000 FEW005 OVC030 05/05 Q1038 EDDC 180750Z 27005KT 240V310 9999 FEW017 BKN027 01/M01 Q1034 NOSIG LSMD 180750Z 05004KT 9000 NSC M00/M01 Q1035 RMK BLU EIDW 180800Z VRB03KT 9999 FEW017 BKN210 00/00 Q1033 NOSIG EDDL 180750Z VRB01KT 9000 SCT009 BKN031 06/05 Q1038 TEMPO BKN008 EHEH 180755Z AUTO 24002KT 0400 R21/0300N FG OVC000 05/05 Q1039 RED NOSIG RMK LVP CHARLIE EBLB 180755Z AUTO VRB01KT 5000 BR SCT006/// OVC019/// 02/02 Q1037 YLO EDWE 180520Z AUTO 29005KT 9999 // OVC014/// 06/05 Q1036 LSME 180750Z VRB01KT 0200 R04/0225V0325N R22/0325N FZFG VV001 M02/M02 Q1035 RMK RED LFSG 180800Z AUTO 03007KT 0550 0500 R26/0700N FG VV/// 02/02 Q1036 EDDE 180750Z 30005KT 9999 FEW014 BKN020 03/02 Q1036 NOSIG LIPY 180750Z AUTO 20003KT 9999 NCD 02/00 Q1031 ETHS 180720Z 26004KT 5000 BR FEW002 SCT008 BKN015 05/04 Q1035 WHT WHT TEMPO GRN LIRQ 180750Z 06003KT CAVOK 02/02 Q1030 EDDF 180750Z 23005KT 9999 FEW024 BKN033 04/03 Q1038 NOSIG EDNY 180750Z VRB04KT 9999 FEW019 00/00 Q1036 ETHF 180740Z 23003KT 8000 -RADZ FEW008 BKN025 04/03 Q1037 BLU BLU TEMPO GRN LIVF 180755Z 09003KT CAVOK 05/M02 Q1027 RMK SKC MON LIB VAL NIL VIS MIN 9999 LSGG 180750Z 05003KT 360V120 9999 BKN020 03/M01 Q1032 NOSIG LIMJ 180750Z 04005KT CAVOK 09/06 Q1030 LIPL 180755Z 33001KT 5000 BR NSC M01/M01 Q1029 RMK SKC VIS MIN 5000 WIND THR31 17001KT WIND THR13 32001KT WHT ETIC 180803Z AUTO 00000KT 9999 FEW023 OVC034 00/M00 A3057 RMK AO2 UPE03 SLP377 FZRANO $ LSZG 180750Z 07013KT 9999 FEW025 03/01 Q1033 NOSIG LFLS 180800Z AUTO 34007KT 6000 SCT004 BKN010 BKN025 01/M00 Q1032 TEMPO 0400 FZFG VV/// EHGG 180755Z AUTO 22004KT 9999 BKN014 OVC016 05/05 Q1037 BECMG 0700 FG BKN002 EDFH 180750Z VRB02KT 7000 BKN020 02/02 Q1037 EDHI 180750Z 26004KT 9999 FEW010 SCT012 BKN023 05/05 Q1035 EDDH 180750Z 26004KT 9000 -DZ SCT010 BKN018 06/05 Q1035 TEMPO BKN009 EDDV 180750Z 26004KT 4200 -DZ BKN005 06/05 Q1036 NOSIG EDQM 180750Z 27004KT 8000 -SN FEW010 SCT013 BKN020 M00/M01 Q1034 ETIH 180756Z AUTO 27004KT 9999 OVC026 00/M01 A3061 RMK AO2 SLP391 T00041008 ETNH 180720Z 26006KT 7000 BKN012 03/03 Q1034 GRN WHT TEMPO YLO ETSH 180720Z 27007KT 9999 FEW020 BKN028 02/M01 Q1034 BLU BLU TEMPO GRN LFTH 180800Z AUTO 36006KT 9999 OVC024 07/03 Q1029 NOSIG ETIK 180811Z 00000KT 4800 -DZ BR BKN015 OVC027 02/02 A3064 RMK AO2A VIS 3000V4000 DZE0756RAB0756E07DZB07 SLP394 $ ETSI 180747Z 25002KT 9999 FEW015 BKN035 02/01 Q1037 BLU BLU TEMPO GRN LOWI 180750Z VRB02KT CAVOK M02/M04 Q1036 NOSIG LIPS 180755Z 00000KT CAVOK 02/M02 Q1031 RMK SKC VIS MIN 9999 WIND THR26 00000KT WIND THR08 00000KT BLU LKKV 180800Z 28007KT 9999 -SG SCT020 BKN025 M01/M03 Q1034 EDSB 180750Z 05003KT 2400 BR SCT005 OVC039 03/03 Q1038 EDVK 180750Z 30006KT 7000 -RA BKN007 04/04 Q1036 ETEB 180756Z AUTO 00000KT 9999 BKN035 01/01 A3060 RMK AO2 DZB39E48DZB48E48 SLP402 P0000 T00100009 FZRANO $ LKKB 180800Z 24008KT 9999 OVC030 M00/M03 Q1034 NOSIG EDHK 180750Z 33005KT 9999 BKN011 05/04 Q1034 LOWK 180750Z AUTO VRB01KT 9999 FEW003 M04/M06 Q1033 NOSIG EBBL 180755Z VRB01KT 1200 BR SCT009 BKN013 BKN025 05/05 Q1039 AMB AMB TEMPO RED EDDK 180750Z VRB01KT 9999 -DZ FEW007 BKN011 OVC025 05/05 Q1038 TEMPO SCT011 LECO 180800Z 19003KT CAVOK 03/02 Q1031 NOSIG ETNL 180720Z 23002KT 9999 BKN020 01/01 Q1033 WHT WHT TEMPO GRN ETHL 180749Z 05003KT 9999 BKN006 02/00 Q1036 YLO GRN TEMPO YLO LFMC 180800Z AUTO 00000KT 9999 ////// M00/M02 Q1030 ETSL 180750Z 34001KT 9999 FEW008 BKN015 02/00 Q1036 WHT WHT TEMPO GRN EHLW 180755Z AUTO 22004KT 0300 FG OVC000 04/04 Q1037 REDZ RED EDDP 180750Z 24006KT 4500 -RADZ BKN004 BKN015 02/02 Q1036 TEMPO 6000 BKN008 EHLE 180755Z AUTO 17003KT 0350 R23/0550N FG VV000 04/04 Q1038 NOSIG LSGC 180750Z AUTO 03013KT 9999 BKN009 M01/M03 Q1031 LIMZ 180750Z AUTO 22004KT 9999 ///////// 01/M05 Q1030 LOWL 180750Z 29007KT 9999 FEW015 SCT035 BKN050 02/00 Q1036 NOSIG LJLJ 180800Z 27002KT 9999 BKN020 M03/M03 Q1033 NOSIG LSZL 180750Z VRB02KT CAVOK 02/M03 Q1031 RMK BLU EDHL 180750Z 27006KT 240V300 9999 BKN022 05/04 Q1034 LSZA 180750Z VRB02KT CAVOK 02/M02 Q1031 NOSIG ELLX 180750Z 01003KT 3000 BR BKN025 04/03 Q1037 TEMPO 3000 LFSX 180800Z AUTO 06003KT 0750 0450 R11/0550N FZFG VV/// M03/M03 Q1035 LFLL 180800Z VRB01KT 8000 OVC006 01/00 Q1033 NOSIG LFML 180800Z AUTO 14003KT CAVOK M00/M03 Q1029 NOSIG ETGG 180720Z AUTO 32012KT 9999 // ////// 06/04 Q1033 /// LSMM 180750Z 11007KT 060V140 CAVOK M02/M03 Q1033 RMK BLU EDJA 180750Z 03006KT 4900 BR FEW008 BKN014 01/01 Q1035 ETWM 180720Z VRB02KT 9999 -DZ FEW005 BKN007 06/05 Q1037 GRN LFJL 180800Z AUTO VRB01KT 0800 0400 R22/0550U R04/1100N FG FEW001 OVC037 03/03 Q1037 TEMPO 0500 FG VV/// LIML 180750Z AUTO 05005KT 5000 BR NCD 04/02 Q1031 LIMC 180750Z 02006KT 340V070 7000 NSC 00/M02 Q1031 NOSIG EDLN 180750Z 28004KT 7000 BKN030 06/05 Q1038 EDDG 180750Z 27003KT 9999 BKN005 05/05 Q1038 TEMPO SCT005 EDDM 180750Z 25004KT 9999 BKN012 BKN030 01/00 Q1037 TEMPO SCT012 BKN030 LFSN 180800Z AUTO 03007KT 3900 BR BKN005 BKN040 03/03 Q1037 LFSO 180800Z AUTO 07004KT 050V110 3300 BR BKN005 BKN036 03/03 Q1037 BECMG 6000 NSW ETSN 180720Z VRB02KT 8000 FEW015 BKN034 02/01 Q1036 BLU LFMN 180800Z 33014KT 9999 BKN024 06/M06 Q1030 NOSIG EDLV 180750Z 28002KT 0800 R27/1300V1900U FG OVC001 06/05 Q1039 ETHN 180749Z 25002KT 0400 -DZ FG SCT001 BKN005 02/02 Q1036 RED YLO TEMPO RED ETNN 180746Z 24001KT 6000 FEW010 BKN030 05/04 Q1038 WHT ETMN 180720Z 28005KT 9999 BKN016 06/05 Q1035 WHT WHT TEMPO GRN EDDN 180750Z VRB02KT 9999 SCT017 BKN034 02/02 Q1037 NOSIG EDMO 180750Z 30003KT 9999 BKN014 01/01 Q1036 EDLP 180750Z 28003KT 220V330 0250 R24/0800D FG VV/// 04/04 Q1037 LIVP 180755Z 00000KT CAVOK M03/M11 Q1027 RMK SKC MON LIB VAL NIL VIS MIN 9999 LIMP 180750Z 20002KT 6000 NSC 00/M03 Q1031 LSMP 180750Z VRB02KT CAVOK 00/M02 Q1033 RMK BLU LIRZ 180750Z AUTO 10003KT 0750 R01/0650D FZFG OVC002 M00/M00 Q1030 RESN LIMH 180755Z 08005KT CAVOK M05/M20 Q1029 RMK SKC MON LIB VAL NIL VIS MIN 9999 LIRP 180745Z 12004KT CAVOK 04/04 Q1029 NOSIG LKLN 180800Z AUTO 24003KT 220V280 9999 BKN034 M01/M03 Q1036 LIVM 180755Z VRB03KT 0250 FG OVC005 02/02 Q1030 RMK OVC QUK / QUL / VIS MAR 250 M VIS MIN 0250 LJPZ 180800Z 11006KT CAVOK 02/M02 Q1032 LKPR 180800Z 23007KT 9999 BKN030 M01/M02 Q1034 NOSIG LDPL 180800Z 09011KT CAVOK 08/02 Q1031 NOSIG LIVE 180755Z 02010G23KT CAVOK M03/M07 Q1029 RMK SKC VIS MIN 9999 LSZR 180750Z 09005KT 7000 SCT025 M01/M01 Q1036 NOSIG RMK D LDRI 180800Z 34004KT CAVOK 08/M02 Q1032 LIPR 180750Z VRB01KT CAVOK 02/M02 Q1031 LIPI 180755Z 34004KT CAVOK 01/M04 Q1031 RMK SKC VIS MIN 9999 WIND THR06 03005KT WIND THR24 32003KT BLU LIVR 180655Z 33004KT CAVOK M05/M11 Q1029 RMK SKC MON LIB VIS MIN 9999 LIPQ 180750Z AUTO VRB03KT 9999 NCD 00/M02 Q1032 EDDR 180750Z 02007KT 8000 BKN032 04/03 Q1037 NOSIG LFMY 180800Z AUTO VRB02KT 9000 ////// M03/M03 Q1030 LOWS 180750Z 31005KT 9999 -DZ FEW011 BKN017 BKN023 03/02 Q1037 NOSIG LSZS 180750Z 21002KT CAVOK M15/M17 Q1031 RMK C TL170 EBDT 180755Z AUTO 25005KT 1800 BR BKN007/// BKN020/// OVC029/// 05/04 Q1039 YLO ETNS 180720Z 25004KT 8000 BKN010 04/04 Q1034 GRN EDTY 180750Z 00000KT 5000 BR OVC004 02/02 Q1037 EINN 180800Z 14008KT 9999 FEW016 BKN024 09/07 Q1031 NOSIG EDGS 180750Z 30004KT 0450 R31/P2000N FG OVC002 02/02 Q1036 LSGS 180750Z 07003KT 010V120 CAVOK M05/M07 Q1033 EISG 180800Z 15013KT 120V180 CAVOK 06/05 Q1029 EKSB 180750Z 30009KT 9999 BKN013 06/04 Q1033 ETAD 180756Z 00000KT 2400 BR FEW002 BKN015 OVC022 03/03 A3062 RMK AO2A VIS 1800V3200 VIS 2200 RWY05/23 VIS 1000 RWY23 CIG 017V022 SLP376 T00290028 TSNO LFST 180800Z AUTO VRB02KT 3000 BR FEW005 OVC039 03/02 Q1038 TEMPO 1200 OVC003 EDDS 180750Z 01005KT 5000 BR FEW004 SCT016 02/02 Q1037 NOSIG EPSC 180800Z VRB02KT 7000 OVC002 M02/M02 Q1033 LIMF 180750Z 05004KT CAVOK 03/M04 Q1031 LIPH 180750Z VRB01KT CAVOK 01/01 Q1031 LIPZ 180750Z 04002KT 6000 NSC 02/00 Q1031 NOSIG LIPX 180750Z AUTO 26003KT 220V310 1900 1400NE BR NCD M01/M02 Q1031 EHVL 180803Z AUTO 21008KT 0450 FG BKN000 04/03 Q1037 RED EHVK 180755Z AUTO VRB02KT 0400 FG OVC001 05/05 Q1039 RED EIWF 180800Z 20007KT 9999 FEW016 BKN019 08/07 Q1034 EDXW 180750Z AUTO 31010KT 9999 // OVC008/// 06/05 Q1034 ETOU 180756Z AUTO 00000KT 9999 OVC032 05/00 A3066 RMK AO2 SLP391 T00480002 ETNT 180720Z 27006KT 9999 -DZ SCT008 BKN013 06/05 Q1036 GRN WHT TEMPO YLO LOXZ 180750Z VRB02KT 30KM FEW040SC SCT060SC M01/M03 Q1031 NOSIG EHBK 180755Z AUTO 20002KT 0650 R21/1100D FG BKN000 BKN001 OVC025 05/05 Q1038 BECMG 2000 BR BKN002 LSZH 180750Z 33003KT 6000 BKN007 01/00 Q1035 BECMG BKN012

METAR Messwerte

Klicken Sie auf einen Ort, um die 36h-Historie abzurufen

Ortsname
Ländercode / m ü. NN
Zeit Temperatur Taupunkt Rel.
Luftfeuchte
Luftdruck:
Altimeter
NN
Station
Wind in Beaufort
(Knoten)
Sichtweite
(Meter)
Wolken
(Meter über Grund)
Wettererscheinung
ALBENGA
IT 41
Di 18.01. 08:501-093 %1030
1030
1025
W 2 (4)>= 10000Nicht signifikant 
ALPNACH
CH 441
Di 18.01. 08:50-1-293 %1035
1038
982
S 1 (2)5000Stark bewölkt (400)
Stark bewölkt (300)
Nebeldunst
ALTENBURG-NOBITZ
DE 193
Di 18.01. 08:501093 %1036
1037
1013
SW 2 (6)4700Bedeckt (300)
Wolkig (180)
Regen (schwach)
ALTENSTADT/SCHON
DE 738
Di 18.01. 09:021-093 %1036
1041
949
NO 2 (5)>= 10000Stark bewölkt (210) 
ANNECY/MEYTHET
FR 460
Di 18.01. 09:00-0-193 %1032
1035
977
Uml 1 (1)6000
Bald zeitweise: 4000
Bedeckt (670) Bald zeitweise: Nebeldunst
ASTURIAS/AVILES
ES 120
Di 18.01. 09:002087 %1032
1033
1017
SW 2 (4)>= 10000Nicht signifikant 
AUGSBURG/MULHAUS
DE 462
Di 18.01. 08:5022100 %1036
1039
981
Uml 1 (1)7000Bedeckt (300)
Leicht bewölkt (210)
 
AVIANO (IT/US-AF
IT 113
Di 18.01. 08:551-375 %1031
1032
1017
NNO 2 (4)>= 10000Nicht signifikant 
AWG-1 SEA
NL 27
Di 18.01. 08:555387 %1037
1037
1034
WSW 2 (6)>= 10000Wolkig (0) 
BALE/MULHOUSE
FR 262
Di 18.01. 09:00-0-193 %1036
1038
1004
SSW 2 (3)200
Bald Übergang zu: 400
 Nebel
BELFAST HARBOUR
GB 2
Di 18.01. 08:505387 %1032
1032
1032
S 2 (6)>= 10000Bedeckt (430) 
BELFAST/ALDERGRO
GB 65
Di 18.01. 08:505493 %1032
1032
1024
S 3 (10)
SSO - SW
>= 10000Stark bewölkt (340) 
BERGAMO/ORIO SER
IT 239
Di 18.01. 08:502-275 %1031
1032
1002
NNO 2 (3)
NNW - O
>= 10000  
BERLIN/BRANDERNB
DE 48
Di 18.01. 08:50-1-293 %1034
1034
1028
W 3 (7)>= 10000Stark bewölkt (610) 
BERN/BELP
CH 510
Di 18.01. 08:50-4-593 %1033
1038
972
Uml 1 (1)>= 10000Nicht signifikant 
BIERSET/LIEGE (C
BE 187
Di 18.01. 08:5044100 %1038
1039
1015
Uml 1 (2)300
Bald Übergang zu: 800
Stark bewölkt (30)Nebel
BOLOGNA/BORGO (A
IT 37
Di 18.01. 08:5011100 %1031
1031
1027
S 2 (3)
SO - SSW
300 Nebel
BOLZANO(CIV/IT-A
IT 239
Di 18.01. 08:503-556 %1032
1033
1003
Uml 1 (1)>= 10000Nicht signifikant 
BRAUNSCHWEIG
DE 83
Di 18.01. 08:504393 %1036
1036
1026
W 2 (5)>= 10000Stark bewölkt (880)
Stark bewölkt (760)
 
BREMEN
DE 5
Di 18.01. 08:506593 %1037
1037
1036
WNW 3 (7)>= 10000Stark bewölkt (270) 
BRESCIA/MONTICHI
IT 104
Di 18.01. 08:500-193 %1031
1032
1018
Uml 1 (2)6000  
BUCKEBURG(GER-AR
DE 69
Di 18.01. 08:336593 %1037
1037
1029
WNW 2 (5)3500Stark bewölkt (700)
Stark bewölkt (91)
Nieselregen (schwach)
Nebeldunst
BUECHEL
DE 477
Di 18.01. 08:2033100 %1036
1039
979
N 2 (3)3500Stark bewölkt (430)
Stark bewölkt (180)
Leicht bewölkt (120)
Nebeldunst
BUITENGAATS
NL 10
Di 18.01. 08:557693 %1036
1036
1035
WSW 2 (6)
SSW - W
>= 10000  
BUOCHS
CH 445
Di 18.01. 08:50-1-386 %1035
1038
982
SW 2 (4)8000Stark bewölkt (400) 
CANNES/MANDELIEU
FR 2
Di 18.01. 09:005175 %1030
1030
1030
NNO 3 (7)
N - ONO
>= 10000Bedeckt (790) 
CAPE MELE
IT 215
Di 18.01. 08:559787 %1029
1030
1003
NNO 3 (8)>= 10000Leicht bewölkt (610) 
CASEMENT (MIL)
IE 90
Di 18.01. 09:006487 %1033
1033
1022
S 1 (2)>= 10000Stark bewölkt (6100)
Wolkig (430)
 
CELLE (GER-ARMY)
DE 35
Di 18.01. 08:4855100 %1036
1036
1032
WSW 2 (4)1800Stark bewölkt (300)
Wolkig (30)
Nieselregen (schwach)
Nebeldunst
CERVIA (IT-AFB)
IT 10
Di 18.01. 09:06-1-386 %1031
1031
1030
WNW 2 (3)400 Nebel
CHAMBERY/AIX BAI
FR 234
Di 18.01. 09:00-0-286 %1034
1036
1006
SSO 2 (6)6000Bedeckt (940) 
CIMONE MOUNTAIN
IT 2139
Di 18.01. 08:55-1-1147 %1028
1045
793
NNO 3 (8)   
COLMAR HOUSSEN
FR 191
Di 18.01. 09:003293 %1037
1038
1014
NNO 2 (5)8000Nicht signifikant 
CONNAUGHT APT
IE 201
Di 18.01. 09:0055100 %1029
1030
1005
SSO 3 (8)
OSO - S
>= 10000Stark bewölkt (1500)
Stark bewölkt (430)
Leicht bewölkt (61)
Regen (schwach)
CORK ARPT/CORCAI
IE 158
Di 18.01. 09:009787 %1032
1032
1013
S 4 (11)>= 10000Stark bewölkt (550)
Stark bewölkt (210)
 
CULDROSE (NAVY)
GB 74
Di 18.01. 08:507481 %1035
1035
1026
SO 2 (4)>= 10000Stark bewölkt (4300)
Leicht bewölkt (760)
 
DEELEN RNLAFB
NL 49
Di 18.01. 08:5544100 %1038
1038
1032
WSW 2 (4)
SSW - WNW
900 Nebel
DIJON/LONGVIC(FA
FR 218
Di 18.01. 09:004287 %1034
1035
1008
NNO 2 (6)8000Bedeckt (210) 
DOLE TAVAUX
FR 191
Di 18.01. 09:003187 %1034
1035
1011
NNO 4 (13)9000Leicht bewölkt (430) 
DORTMUND/WICKEDE
DE 122
Di 18.01. 08:5055100 %1038
1039
1023
Uml 1 (1)7000Bedeckt (910)
Leicht bewölkt (150)
 
DRESDEN/KLOTZSCH
DE 227
Di 18.01. 08:501-186 %1034
1036
1007
W 2 (5)
WSW - NW
>= 10000Stark bewölkt (820)
Leicht bewölkt (520)
 
DUBENDORF
CH 436
Di 18.01. 08:50-0-193 %1035
1038
983
NO 2 (4)9000Nicht signifikant 
DUBLIN AIRPORT
IE 75
Di 18.01. 09:0000100 %1033
1034
1024
Uml 2 (3)>= 10000Stark bewölkt (6400)
Leicht bewölkt (520)
 
DUESSELDORF
DE 37
Di 18.01. 08:506593 %1038
1038
1033
Uml 1 (1)9000Stark bewölkt (940)
Wolkig (270)
 
EINDHOVEN RNLAFB
NL 20
Di 18.01. 08:5555100 %1039
1039
1037
WSW 1 (2)400Bedeckt (0)Nebel
ELSENBORN (MIL)
BE 563
Di 18.01. 08:5522100 %1037
1041
970
Uml 1 (1)5000Bedeckt (580)
Wolkig (180)
Nebeldunst
EMDEN-KOENIGSPO
DE 0
Di 18.01. 06:206593 %1036
1036
1036
WNW 2 (5)>= 10000Bedeckt (430) 
EMMEN
CH 427
Di 18.01. 08:50-2-2100 %1035
1039
984
Uml 1 (1)200 Nebel
EPINAL/MIRECOURT
FR 320
Di 18.01. 09:0022100 %1036
1038
997
NNO 3 (7)550 Nebel
ERFURT/BINDERSLE
DE 314
Di 18.01. 08:503293 %1036
1038
998
WNW 2 (5)>= 10000Stark bewölkt (610)
Leicht bewölkt (430)
 
FALCONARA (IT-AF
IT 11
Di 18.01. 08:502087 %1031
1031
1030
SSW 2 (3)>= 10000  
FASSBERG (GER-AF
DE 71
Di 18.01. 08:205493 %1035
1035
1026
W 2 (4)5000Stark bewölkt (460)
Wolkig (240)
Leicht bewölkt (61)
Nebeldunst
FIRENZE/PERETOLA
IT 33
Di 18.01. 08:5022100 %1030
1030
1026
ONO 2 (3)>= 10000Nicht signifikant 
FRANKFURT MAIN A
DE 113
Di 18.01. 08:504393 %1038
1039
1024
SW 2 (5)>= 10000Stark bewölkt (1000)
Leicht bewölkt (730)
 
FRIEDRICHSHAFEN
DE 411
Di 18.01. 08:5000100 %1036
1039
987
Uml 2 (4)>= 10000Leicht bewölkt (580) 
FRITZLAR (GER-AR
DE 171
Di 18.01. 08:404393 %1037
1038
1016
SW 2 (3)8000Stark bewölkt (760)
Leicht bewölkt (240)
Regen/Nieselregen (schwach)
FRONTONE
IT 549
Di 18.01. 08:555-260 %1027
1030
962
O 2 (3)>= 10000Nicht signifikant 
GENEVA/COINTRIN
CH 411
Di 18.01. 08:503-175 %1032
1034
983
NO 2 (3)
N - OSO
>= 10000Stark bewölkt (610) 
GENOVA/SESTRI
IT 3
Di 18.01. 08:509681 %1030
1030
1030
NO 2 (5)>= 10000Nicht signifikant 
GHEDI (IT-AFB)
IT 96
Di 18.01. 08:55-1-1100 %1029
1030
1017
NNW 1 (1)5000Nicht signifikantNebeldunst
GRAFENWOEHR
DE 414
Di 18.01. 09:030-0100 %1035
1038
985
Windstill>= 10000Bedeckt (1000)
Leicht bewölkt (700)
 
GRENCHEN
CH 428
Di 18.01. 08:503187 %1033
1036
982
ONO 4 (13)>= 10000Leicht bewölkt (760) 
GRENOBLE/ST. GEO
FR 386
Di 18.01. 09:001-093 %1032
1035
986
NNW 3 (7)6000
Bald zeitweise: 400
Stark bewölkt (760)
Stark bewölkt (300)
Wolkig (120)
 Bald zeitweise: Nebel
GRONINGEN/EELDE
NL 2
Di 18.01. 08:5555100 %1037
1037
1037
SW 2 (4)>= 10000
Bald Übergang zu: 700
Bedeckt (490)
Stark bewölkt (430)
 Bald Übergang zu: Nebel
HAHN
DE 494
Di 18.01. 08:5022100 %1037
1040
978
Uml 1 (2)7000Stark bewölkt (610) 
HAMBURG/FINKENWE
DE 5
Di 18.01. 08:5055100 %1035
1035
1034
W 2 (4)>= 10000Stark bewölkt (700)
Wolkig (370)
Leicht bewölkt (300)
 
HAMBURG/FUHLSBUT
DE 8
Di 18.01. 08:506593 %1035
1035
1034
W 2 (4)9000Stark bewölkt (550)
Wolkig (300)
Nieselregen (schwach)
HANNOVER
DE 53
Di 18.01. 08:506593 %1036
1036
1030
W 2 (4)4200Stark bewölkt (150)Nieselregen (schwach)
HOF
DE 578
Di 18.01. 08:50-0-193 %1034
1038
965
W 2 (4)8000Stark bewölkt (610)
Wolkig (400)
Leicht bewölkt (300)
Schneefall (schwach)
HOHENFELS (USA-A
DE 436
Di 18.01. 08:560-193 %1037
1040
985
W 2 (4)>= 10000Bedeckt (790) 
HOHN (GER-AFB)
DE 6
Di 18.01. 08:2033100 %1034
1034
1033
W 2 (6)7000Stark bewölkt (370) 
HOLZDORF
DE 79
Di 18.01. 08:202-180 %1034
1035
1024
W 3 (7)>= 10000Stark bewölkt (850)
Leicht bewölkt (610)
 
HYERES/LE PALYVE
FR 3
Di 18.01. 09:007376 %1029
1029
1029
N 2 (6)>= 10000Bedeckt (730) 
ILLESHEIM (USA-A
DE 326
Di 18.01. 09:1122100 %1038
1040
999
Windstill4800Bedeckt (820)
Stark bewölkt (460)
Nieselregen (schwach)
Nebeldunst
INGOLSTADT(GER-M
DE 366
Di 18.01. 08:472193 %1037
1039
993
WSW 1 (2)>= 10000Stark bewölkt (1100)
Leicht bewölkt (460)
 
INNSBRUCK AIRPOR
AT 570
Di 18.01. 08:50-2-486 %1036
1041
968
Uml 1 (2)>= 10000Nicht signifikant 
ISTRANA (IT-AFB)
IT 42
Di 18.01. 08:552-275 %1031
1031
1026
Windstill>= 10000Nicht signifikant 
KARLOVY VARY
CZ 600
Di 18.01. 09:00-1-386 %1034
1039
963
W 3 (7)>= 10000Stark bewölkt (760)
Wolkig (610)
Schneegriesel (schwach)
KARLSRUHE/BADEN
DE 122
Di 18.01. 08:5033100 %1038
1039
1023
NO 2 (3)2400Bedeckt (1200)
Wolkig (150)
Nebeldunst
KASSEL/CALDEN
DE 277
Di 18.01. 08:5044100 %1036
1038
1003
WNW 2 (6)7000Stark bewölkt (210)Regen (schwach)
KATTERBACH (USA-
DE 466
Di 18.01. 08:5611100 %1036
1039
980
Windstill>= 10000Stark bewölkt (1100) 
KBELY
CZ 281
Di 18.01. 09:00-0-380 %1034
1036
1000
WSW 3 (8)>= 10000Bedeckt (910) 
KIEL/HOLTENAU CI
DE 24
Di 18.01. 08:505493 %1034
1034
1031
NNW 2 (5)>= 10000Stark bewölkt (340) 
KLAGENFURT(CIV/M
AT 450
Di 18.01. 08:50-4-686 %1033
1037
979
Uml 1 (1)>= 10000Leicht bewölkt (91) 
KLEINE-BROGEL(BA
BE 50
Di 18.01. 08:5555100 %1039
1039
1033
Uml 1 (1)1200Stark bewölkt (760)
Stark bewölkt (400)
Wolkig (270)
Nebeldunst
KOELN/BONN
DE 92
Di 18.01. 08:5055100 %1038
1038
1027
Uml 1 (1)>= 10000Bedeckt (760)
Stark bewölkt (340)
Leicht bewölkt (210)
Nieselregen (schwach)
LA CORUNA/ALVEDR
ES 80
Di 18.01. 09:003293 %1031
1031
1021
S 2 (3)>= 10000Nicht signifikant 
LAAGE
DE 40
Di 18.01. 08:2011100 %1033
1033
1028
SW 1 (2)>= 10000Stark bewölkt (610) 
LAUPHEIM (GER-AR
DE 536
Di 18.01. 08:492087 %1036
1039
972
NO 2 (3)>= 10000Stark bewölkt (180) 
LE LUC/LE CANNET
FR 79
Di 18.01. 09:00-0-286 %1030
1031
1020
Windstill>= 10000  
LECHFELD (GER-AF
DE 548
Di 18.01. 08:502087 %1036
1040
971
NNW 1 (1)>= 10000Stark bewölkt (460)
Leicht bewölkt (240)
 
LEEUWARDEN RNLAF
NL 1
Di 18.01. 08:5544100 %1037
1037
1037
SW 2 (4)300Bedeckt (0)Nebel
LEIPZIG/SCHKEUDI
DE 129
Di 18.01. 08:5022100 %1036
1037
1020
WSW 2 (6)4500
Bald zeitweise: 6000
Stark bewölkt (460)
Stark bewölkt (120)
Regen/Nieselregen (schwach)
LELYSTAD
NL -3
Di 18.01. 08:5544100 %1038
1038
1038
S 2 (3)350 Nebel
LES EPLATURES
CH 1018
Di 18.01. 08:50-1-386 %1031
1039
913
NNO 4 (13)>= 10000Stark bewölkt (270) 
LEVALDIGI
IT 377
Di 18.01. 08:501-564 %1030
1033
985
SW 2 (4)>= 10000  
LINZ (CIV/MIL)
AT 290
Di 18.01. 08:502087 %1036
1038
1001
WNW 3 (7)>= 10000Stark bewölkt (1500)
Wolkig (1100)
Leicht bewölkt (460)
 
LJUBLJANA/BRNIK
SI 363
Di 18.01. 09:00-3-3100 %1033
1036
989
W 1 (2)>= 10000Stark bewölkt (610) 
LOCARNO
CH 198
Di 18.01. 08:502-369 %1031
1032
1007
Uml 1 (2)>= 10000Nicht signifikant 
LUEBECK/BLANKENS
DE 13
Di 18.01. 08:505493 %1034
1034
1032
W 2 (6)
WSW - WNW
>= 10000Stark bewölkt (670) 
LUGANO (PVT/AUT)
CH 276
Di 18.01. 08:502-275 %1031
1033
998
Uml 1 (2)>= 10000Nicht signifikant 
LUXEMBOURG (AUT)
LU 374
Di 18.01. 08:504393 %1037
1039
992
N 2 (3)3000Stark bewölkt (760)Nebeldunst
LUXEUIL/ST. SAUV
FR 266
Di 18.01. 09:00-3-3100 %1035
1037
1003
ONO 2 (3)750 Nebel
LYON/SATOLAS
FR 234
Di 18.01. 09:001093 %1033
1035
1005
Uml 1 (1)8000Bedeckt (180) 
MARSEILLE/MARIGN
FR 20
Di 18.01. 09:00-0-380 %1029
1029
1027
SO 2 (3)>= 10000Nicht signifikant 
MEIERWIK
DE 33
Di 18.01. 08:206487 %1033
1033
1029
NW 4 (12)>= 10000  
MEIRINGEN
CH 570
Di 18.01. 08:50-2-393 %1033
1038
965
OSO 3 (7)
ONO - SO
>= 10000Nicht signifikant 
MEMMINGEN ALLGAU
DE 625
Di 18.01. 08:5011100 %1035
1039
961
NNO 2 (6)4900Stark bewölkt (430)
Leicht bewölkt (240)
Nebeldunst
MEPPEN
DE 18
Di 18.01. 08:206593 %1037
1037
1035
Uml 1 (2)>= 10000Stark bewölkt (210)
Leicht bewölkt (150)
Nieselregen (schwach)
METZ-NANCY-LORRA
FR 259
Di 18.01. 09:0033100 %1037
1039
1006
Uml 1 (1)800
Bald zeitweise: 500
Bedeckt (1100)
Leicht bewölkt (30)
Nebel
MILANO/LINATE
IT 109
Di 18.01. 08:504287 %1031
1032
1018
NO 2 (5)5000 Nebeldunst
MILANO/MALPENSA
IT 221
Di 18.01. 08:500-286 %1031
1033
1004
NNO 2 (6)
NNW - ONO
7000Nicht signifikant 
MONCHENGLADBACH
DE 38
Di 18.01. 08:506593 %1038
1038
1033
W 2 (4)7000Stark bewölkt (910) 
MUENSTER/OSNABRU
DE 46
Di 18.01. 08:5055100 %1038
1038
1032
W 2 (3)>= 10000Stark bewölkt (150) 
MUNICH-FLUGHAFEN
DE 445
Di 18.01. 08:501093 %1037
1040
984
WSW 2 (4)>= 10000Stark bewölkt (910)
Stark bewölkt (370)
 
NANCY/ESSEY
FR 214
Di 18.01. 09:0033100 %1037
1038
1011
NNO 3 (7)3900Stark bewölkt (1200)
Stark bewölkt (150)
Nebeldunst
NANCY/OCHEY (FAF
FR 328
Di 18.01. 09:0033100 %1037
1039
997
ONO 2 (4)
NO - OSO
3300
Bald Übergang zu: 6000
Stark bewölkt (1100)
Stark bewölkt (150)
Nebeldunst
NEUBURG/DONAU
DE 378
Di 18.01. 08:202193 %1036
1038
991
Uml 1 (2)8000Stark bewölkt (1000)
Leicht bewölkt (460)
 
NICE/COTE D'AZUR
FR 4
Di 18.01. 09:006-642 %1030
1030
1030
NNW 4 (14)>= 10000Stark bewölkt (730) 
NIEDERRHEIN
DE 27
Di 18.01. 08:506593 %1039
1039
1036
W 1 (2)800Bedeckt (30)Nebel
NIEDERSTETTEN (G
DE 466
Di 18.01. 08:4922100 %1036
1039
980
WSW 1 (2)400Stark bewölkt (150)
Wolkig (30)
Nieselregen (schwach)
Nebel
NOERVENICH (GAF)
DE 108
Di 18.01. 08:465493 %1038
1039
1025
WSW 1 (1)6000Stark bewölkt (910)
Leicht bewölkt (300)
 
NORDHOLZ (GER-NA
DE 23
Di 18.01. 08:206593 %1035
1035
1032
W 2 (5)>= 10000Stark bewölkt (490) 
NUERNBERG
DE 312
Di 18.01. 08:5022100 %1037
1039
999
Uml 1 (2)>= 10000Stark bewölkt (1000)
Wolkig (520)
 
OBERPFAFFENHOFEN
DE 587
Di 18.01. 08:5011100 %1036
1040
966
WNW 2 (3)>= 10000Stark bewölkt (430) 
PADERBORN/LIPPST
DE 211
Di 18.01. 08:5044100 %1037
1038
1011
W 2 (3)
SW - NNW
250 Nebel
PAGANELLA MOUNTA
IT 2099
Di 18.01. 08:55-3-1154 %1027
1045
796
Windstill>= 10000Nicht signifikant 
PARMA
IT 41
Di 18.01. 08:500-380 %1031
1031
1026
SSW 1 (2)6000Nicht signifikant 
PAYERNE (MIL/AUT
CH 490
Di 18.01. 08:500-286 %1033
1037
975
Uml 1 (2)>= 10000Nicht signifikant 
PERUGIA
IT 206
Di 18.01. 08:50-0-0100 %1030
1031
1005
O 2 (3)750Bedeckt (61)Nebel
PIAN ROSA (MTN T
IT 3473
Di 18.01. 08:55-5-2030 %1029
1064
671
O 2 (5)>= 10000Nicht signifikant 
PISA (CIV/IT-AFB
IT 1
Di 18.01. 08:4544100 %1029
1029
1029
OSO 2 (4)>= 10000Nicht signifikant 
PLZEN LINE
CZ 353
Di 18.01. 09:00-1-386 %1036
1039
994
WSW 2 (3)
SW - W
>= 10000Stark bewölkt (1000) 
POINT MARINA/RAV
IT 6
Di 18.01. 08:5522100 %1030
1030
1029
Uml 2 (3)250Bedeckt (150)Nebel
PORTOROZ
SI 2
Di 18.01. 09:002-275 %1032
1032
1032
OSO 2 (6)>= 10000Nicht signifikant 
PRAGUE/RUZYNE
CZ 364
Di 18.01. 09:00-1-293 %1034
1037
990
SW 3 (7)>= 10000Stark bewölkt (910) 
PULA
HR 63
Di 18.01. 09:008266 %1031
1031
1023
O 4 (11)>= 10000Nicht signifikant 
RESIA PASS
IT 1684
Di 18.01. 08:55-3-774 %1029
1044
840
NNO 3 (10) - 6 (23)>= 10000Nicht signifikant 
RHEINECK/ALTENRH
CH 396
Di 18.01. 08:50-1-1100 %1036
1039
988
O 2 (5)7000Wolkig (760) 
RIJEKA/OMISALJ
HR 80
Di 18.01. 09:008-249 %1032
1032
1022
NNW 2 (4)>= 10000Nicht signifikant 
RIMINI (CIV/IT-A
IT 10
Di 18.01. 08:502-275 %1031
1031
1030
Uml 1 (1)>= 10000Nicht signifikant 
RIVOLTO (IT-AFB)
IT 49
Di 18.01. 08:551-469 %1031
1031
1025
NNW 2 (4)>= 10000Nicht signifikant 
ROLLE PASS
IT 1997
Di 18.01. 07:55-5-1163 %1029
1049
808
NNW 2 (4)>= 10000Nicht signifikant 
RONCHI LEGIONARI
IT 6
Di 18.01. 08:500-286 %1032
1032
1031
Uml 2 (3)>= 10000  
SAARBRUECKEN
DE 317
Di 18.01. 08:504393 %1037
1039
999
NNO 3 (7)8000Stark bewölkt (980) 
SALON (FAFB)
FR 57
Di 18.01. 09:00-3-3100 %1030
1030
1023
Uml 1 (2)9000  
SALZBURG AIRPORT
AT 427
Di 18.01. 08:503293 %1037
1040
986
NW 2 (5)>= 10000Stark bewölkt (700)
Stark bewölkt (520)
Leicht bewölkt (340)
Nieselregen (schwach)
SAMEDAN
CH 1708
Di 18.01. 08:50-15-1785 %1031
1057
839
SSW 1 (2)>= 10000Nicht signifikant 
SCHAFFEN
BE 25
Di 18.01. 08:555493 %1039
1039
1036
WSW 2 (5)1800Bedeckt (880)
Stark bewölkt (610)
Stark bewölkt (210)
Nebeldunst
SCHLESWIG(GER-NA
DE 22
Di 18.01. 08:2044100 %1034
1034
1031
WSW 2 (4)8000Stark bewölkt (300) 
SCHWAEBISCH HALL
DE 398
Di 18.01. 08:5022100 %1037
1040
989
Windstill5000Bedeckt (120)Nebeldunst
SHANNON AIRPORT
IE 20
Di 18.01. 09:009787 %1031
1031
1029
SO 3 (8)>= 10000Stark bewölkt (730)
Leicht bewölkt (490)
 
SIEGERLAND
DE 595
Di 18.01. 08:5022100 %1036
1040
965
WNW 2 (4)450Bedeckt (61)Nebel
SION (MIL/CIV/AU
CH 482
Di 18.01. 08:50-5-786 %1033
1038
976
ONO 2 (3)
N - OSO
>= 10000Nicht signifikant 
SLIGO ARPT
IE 1
Di 18.01. 09:006593 %1029
1029
1029
SSO 4 (13)
OSO - S
>= 10000Nicht signifikant 
SONDERBORG AIRPO
DK 23
Di 18.01. 08:506487 %1033
1033
1030
WNW 3 (9)>= 10000Stark bewölkt (400) 
SPANGDAHLEM (USA
DE 365
Di 18.01. 08:5633100 %1037
1039
993
Windstill2400Bedeckt (670)
Stark bewölkt (460)
Leicht bewölkt (61)
Nebeldunst
STRASBOURG/ENTZH
FR 149
Di 18.01. 09:003293 %1038
1039
1020
Uml 1 (2)3000
Bald zeitweise: 1200
Bedeckt (1200)
Leicht bewölkt (150)
Nebeldunst
STUTTGART/ECHTER
DE 374
Di 18.01. 08:5022100 %1037
1039
992
N 2 (5)5000Wolkig (490)
Leicht bewölkt (120)
Nebeldunst
SZCZECIN/GOLENIO
PL 47
Di 18.01. 09:00-2-2100 %1033
1033
1027
Uml 1 (2)7000Bedeckt (61) 
TORINO/CASELLE
IT 295
Di 18.01. 08:503-460 %1031
1033
996
NO 2 (4)>= 10000Nicht signifikant 
TREVISO(CIV/IT-A
IT 10
Di 18.01. 08:5011100 %1031
1031
1030
Uml 1 (1)>= 10000Nicht signifikant 
VENEZIA/TESSERA
IT 3
Di 18.01. 08:502087 %1031
1031
1031
NO 1 (2)6000Nicht signifikant 
VILLAFRANCA(CV/M
IT 67
Di 18.01. 08:50-1-293 %1031
1032
1023
W 2 (3)
SW - NW
1900 Nebeldunst
VLIELAND ISLAND
NL 2
Di 18.01. 09:034393 %1037
1037
1037
SSW 3 (8)450Stark bewölkt (0)Nebel
VOLKEL RNLAFB
NL 20
Di 18.01. 08:5555100 %1039
1039
1037
Uml 1 (2)400Bedeckt (30)Nebel
WATERFORD ARPT
IE 26
Di 18.01. 09:008793 %1034
1034
1031
SSW 3 (7)>= 10000Stark bewölkt (580)
Leicht bewölkt (490)
 
WESTERLAND/SYLT
DE 8
Di 18.01. 08:506593 %1034
1034
1033
NW 3 (10)>= 10000Bedeckt (240) 
WIESBADEN (USA-A
DE 141
Di 18.01. 08:565070 %1038
1039
1021
Windstill>= 10000Bedeckt (980) 
WITTMUNDHAVEN(GA
DE 5
Di 18.01. 08:206593 %1036
1036
1035
W 2 (6)>= 10000Stark bewölkt (400)
Wolkig (240)
Nieselregen (schwach)
ZELTWEG (MIL)
AT 678
Di 18.01. 08:50-1-386 %1031
1036
951
Uml 1 (2) Wolkig (1800)
Leicht bewölkt (1200)
 
ZUID-LIMBURG/BEE
NL 112
Di 18.01. 08:5555100 %1038
1039
1024
SSW 1 (2)650
Bald Übergang zu: 2000
Bedeckt (760)
Stark bewölkt (30)
Stark bewölkt (0)
Nebel
Bald Übergang zu: Nebeldunst
ZURICH-KLOTEN (A
CH 424
Di 18.01. 08:501093 %1035
1038
984
NNW 2 (3)6000Stark bewölkt (210) 

Altimeter: Einstellung am Altimeter (Höhenmesser), die Höhe 0 muss auf diesen Luftdruckwert zeigen, damit das Gerät die Stationshöhe richtig anzeigt.

NN: Luftdruck reduziert auf "Normal Null", auf Meereshöhe, dieser von der Temperatur abhängige Wert wird bisweilen unkorrekt einfach als "Luftdruck" bezeichnet. Eigentlich nur eine fiktive Größe, die es erlaubt, Stationen auf unterschiedlichen Höhen miteinander zu vergleichen.

Station: Realer Luftdruck an der Station.